Observations for LUTON AIRPORT, United Kingdom (EGGW)

EGGW 231120Z AUTO 19007KT 9999 OVC003 13/12 Q1017   
EGGW 231050Z AUTO 20008KT 150V220 9999 OVC004 13/12 Q1017   
EGGW 231020Z AUTO 19008KT 8000 OVC003 12/11 Q1017   
EGGW 230950Z AUTO 19007KT 9000 OVC003 11/11 Q1017   
EGGW 230920Z AUTO 19006KT 160V220 9000 OVC004 11/10 Q1017   
EGGW 230850Z 20008KT 4000 BR OVC005 11/10 Q1017 
EGGW 230820Z AUTO 19007KT 150V220 9999 BKN007 BKN020 OVC048 10/09 Q1017 
EGGW 230750Z AUTO 19007KT 9999 BKN024 10/09 Q1017   
EGGW 230720Z AUTO 18005KT 9999 NCD 09/09 Q1017  
EGGW 230650Z AUTO 18004KT 9999 -RA NCD 09/09 Q1017  
EGGW 230620Z AUTO 18005KT 9999 NCD 09/08 Q1017  
EGGW 230550Z AUTO 20007KT 9999 NCD 09/09 Q1017  
EGGW 230520Z AUTO 20006KT 9999 NCD 09/08 Q1017  
EGGW 230450Z AUTO 21009KT 9999 SCT011 BKN033 09/08 Q1018
EGGW 230420Z AUTO 19005KT 160V220 9999 SCT011 BKN033 09/08 Q1017
EGGW 230350Z AUTO 18004KT 130V220 9999 FEW012 OVC035 10/08 Q1017
EGGW 230320Z AUTO 24009KT 9999 OVC037 10/08 Q1017   
EGGW 230250Z AUTO 25008KT 9999 BKN045 09/08 Q1017   
EGGW 230220Z AUTO 26011KT 9999 NCD 09/07 Q1017  
EGGW 230150Z AUTO 26012KT 9999 NCD 09/07 Q1017  
EGGW 230120Z AUTO 25010KT 9999 NCD 09/07 Q1017  
EGGW 230050Z AUTO 26009KT 9999 NCD 09/07 Q1017  
EGGW 230020Z AUTO 26009KT 9999 NCD 09/07 Q1017  
EGGW 222350Z AUTO 25008KT 9999 NCD 09/07 Q1017  
EGGW 222320Z AUTO 26011KT 9999 NCD 09/07 Q1017  
EGGW 222250Z AUTO 25011KT 9999 NCD 09/07 Q1017  
EGGW 222220Z AUTO 25012KT 9999 FEW040 OVC048 09/07 Q1017
EGGW 222150Z AUTO 25011KT 9999 SCT036 BKN043 09/07 Q1017
EGGW 222120Z AUTO 25011KT 9999 NCD 08/06 Q1017  
EGGW 222050Z AUTO 26011KT 9999 NCD 08/06 Q1017  
EGGW 222020Z AUTO 27011KT 9999 NCD 08/06 Q1017  
EGGW 221950Z AUTO 26011KT 9999 NCD 08/06 Q1016  
EGGW 221920Z 27011KT CAVOK 09/06 Q1016  
EGGW 221850Z AUTO 28012KT 9999 NCD 10/06 Q1016  
EGGW 221820Z AUTO 27008KT 9999 BKN043 09/07 Q1015   
EGGW 221750Z AUTO 28012KT 9999 NCD 09/07 Q1015  
EGGW 221720Z AUTO 26014KT 9999 NCD 09/07 Q1015  
EGGW 221650Z 28014KT CAVOK 10/07 Q1014  
EGGW 221620Z AUTO 27017KT 9999 NCD 10/07 Q1014  
EGGW 221550Z AUTO 26015KT 9999 NCD 10/06 Q1014  
EGGW 221520Z AUTO 28017KT 9999 NCD 11/06 Q1013  
EGGW 221450Z AUTO 29018G28KT 9999 FEW033 12/05 Q1013
EGGW 221420Z AUTO 28020G30KT 9999 SCT041 13/04 Q1013
EGGW 221350Z AUTO 27020KT 9999 BKN046 12/04 Q1013   
EGGW 221320Z AUTO 27018KT 9999 BKN046 11/04 Q1013   
EGGW 221250Z AUTO 28020KT 9999 SCT041 BKN048 11/04 Q1013
EGGW 221220Z AUTO 27019KT 9999 NCD 12/04 Q1012  
EGGW 221150Z AUTO 27022KT 9999 BKN049 11/04 Q1012   
EGGW 221120Z AUTO 27022KT 9999 NCD 11/05 Q1012  
EGGW 221050Z AUTO 27020KT 9999 BKN037 11/05 Q1012